sensor_id;sensor_type;location;lat;lon;timestamp;P1;durP1;ratioP1;P2;durP2;ratioP2
19396;SDS011;9834;48.076;11.878;2023-08-06T00:01:34;4.80;;;3.77;;
19396;SDS011;9834;48.076;11.878;2023-08-06T00:04:02;2.70;;;2.50;;
19396;SDS011;9834;48.076;11.878;2023-08-06T00:06:29;3.13;;;2.73;;
19396;SDS011;9834;48.076;11.878;2023-08-06T00:08:56;3.53;;;2.97;;
19396;SDS011;9834;48.076;11.878;2023-08-06T00:11:46;3.10;;;2.40;;
19396;SDS011;9834;48.076;11.878;2023-08-06T00:14:15;4.47;;;3.50;;
19396;SDS011;9834;48.076;11.878;2023-08-06T00:16:54;4.43;;;4.03;;
19396;SDS011;9834;48.076;11.878;2023-08-06T00:19:27;2.73;;;2.53;;
19396;SDS011;9834;48.076;11.878;2023-08-06T00:21:57;3.70;;;2.97;;
19396;SDS011;9834;48.076;11.878;2023-08-06T00:24:30;3.40;;;3.10;;
19396;SDS011;9834;48.076;11.878;2023-08-06T00:27:02;4.27;;;3.13;;
19396;SDS011;9834;48.076;11.878;2023-08-06T00:29:31;3.17;;;2.90;;
19396;SDS011;9834;48.076;11.878;2023-08-06T00:32:05;4.77;;;4.17;;
19396;SDS011;9834;48.076;11.878;2023-08-06T00:34:43;4.37;;;3.97;;
19396;SDS011;9834;48.076;11.878;2023-08-06T00:37:10;4.13;;;3.73;;
19396;SDS011;9834;48.076;11.878;2023-08-06T00:39:51;4.50;;;4.10;;
19396;SDS011;9834;48.076;11.878;2023-08-06T00:42:17;3.60;;;3.20;;
19396;SDS011;9834;48.076;11.878;2023-08-06T00:44:53;6.67;;;4.23;;
19396;SDS011;9834;48.076;11.878;2023-08-06T00:47:23;3.90;;;3.57;;
19396;SDS011;9834;48.076;11.878;2023-08-06T00:50:01;4.00;;;3.47;;
19396;SDS011;9834;48.076;11.878;2023-08-06T00:52:32;4.30;;;3.43;;
19396;SDS011;9834;48.076;11.878;2023-08-06T00:54:59;3.77;;;3.17;;
19396;SDS011;9834;48.076;11.878;2023-08-06T01:00:17;3.90;;;3.50;;
19396;SDS011;9834;48.076;11.878;2023-08-06T01:02:45;3.97;;;3.57;;
19396;SDS011;9834;48.076;11.878;2023-08-06T01:05:12;5.90;;;4.13;;
19396;SDS011;9834;48.076;11.878;2023-08-06T01:07:42;4.37;;;3.80;;
19396;SDS011;9834;48.076;11.878;2023-08-06T01:10:19;7.67;;;3.67;;
19396;SDS011;9834;48.076;11.878;2023-08-06T01:13:11;3.50;;;3.20;;
19396;SDS011;9834;48.076;11.878;2023-08-06T01:16:04;3.43;;;3.13;;
19396;SDS011;9834;48.076;11.878;2023-08-06T01:18:32;4.77;;;3.87;;
19396;SDS011;9834;48.076;11.878;2023-08-06T01:21:07;4.00;;;3.60;;
19396;SDS011;9834;48.076;11.878;2023-08-06T01:23:34;4.00;;;3.60;;
19396;SDS011;9834;48.076;11.878;2023-08-06T01:26:06;4.73;;;3.83;;
19396;SDS011;9834;48.076;11.878;2023-08-06T01:28:48;4.87;;;3.00;;
19396;SDS011;9834;48.076;11.878;2023-08-06T01:31:42;6.03;;;3.70;;
19396;SDS011;9834;48.076;11.878;2023-08-06T01:34:11;3.50;;;3.20;;
19396;SDS011;9834;48.076;11.878;2023-08-06T01:36:44;3.17;;;2.87;;
19396;SDS011;9834;48.076;11.878;2023-08-06T01:39:19;3.37;;;3.03;;
19396;SDS011;9834;48.076;11.878;2023-08-06T01:41:52;3.77;;;3.30;;
19396;SDS011;9834;48.076;11.878;2023-08-06T01:44:20;4.93;;;3.57;;
19396;SDS011;9834;48.076;11.878;2023-08-06T01:46:47;4.63;;;3.63;;
19396;SDS011;9834;48.076;11.878;2023-08-06T01:49:14;4.20;;;2.83;;
19396;SDS011;9834;48.076;11.878;2023-08-06T01:51:47;3.43;;;2.90;;
19396;SDS011;9834;48.076;11.878;2023-08-06T01:54:26;3.40;;;3.17;;
19396;SDS011;9834;48.076;11.878;2023-08-06T01:57:00;4.20;;;3.83;;
19396;SDS011;9834;48.076;11.878;2023-08-06T01:59:27;4.07;;;3.70;;
19396;SDS011;9834;48.076;11.878;2023-08-06T02:01:57;4.63;;;3.83;;
19396;SDS011;9834;48.076;11.878;2023-08-06T02:04:24;4.33;;;3.90;;
19396;SDS011;9834;48.076;11.878;2023-08-06T02:07:10;4.63;;;3.80;;
19396;SDS011;9834;48.076;11.878;2023-08-06T02:09:37;3.90;;;3.13;;
19396;SDS011;9834;48.076;11.878;2023-08-06T02:12:05;4.47;;;4.03;;
19396;SDS011;9834;48.076;11.878;2023-08-06T02:14:35;4.67;;;3.67;;
19396;SDS011;9834;48.076;11.878;2023-08-06T02:17:02;5.00;;;3.70;;
19396;SDS011;9834;48.076;11.878;2023-08-06T02:19:32;3.97;;;3.60;;
19396;SDS011;9834;48.076;11.878;2023-08-06T02:22:05;3.97;;;3.53;;
19396;SDS011;9834;48.076;11.878;2023-08-06T02:24:39;6.37;;;4.23;;
19396;SDS011;9834;48.076;11.878;2023-08-06T02:27:07;6.63;;;4.60;;
19396;SDS011;9834;48.076;11.878;2023-08-06T02:29:33;3.53;;;3.23;;
19396;SDS011;9834;48.076;11.878;2023-08-06T02:32:00;4.87;;;3.90;;
19396;SDS011;9834;48.076;11.878;2023-08-06T02:34:27;3.77;;;3.27;;
19396;SDS011;9834;48.076;11.878;2023-08-06T02:36:57;4.87;;;3.93;;
19396;SDS011;9834;48.076;11.878;2023-08-06T02:39:35;3.77;;;3.13;;
19396;SDS011;9834;48.076;11.878;2023-08-06T02:44:55;4.77;;;3.63;;
19396;SDS011;9834;48.076;11.878;2023-08-06T02:47:25;5.27;;;3.20;;
19396;SDS011;9834;48.076;11.878;2023-08-06T02:49:55;3.47;;;2.83;;
19396;SDS011;9834;48.076;11.878;2023-08-06T02:52:28;3.47;;;2.87;;
19396;SDS011;9834;48.076;11.878;2023-08-06T02:55:02;3.87;;;3.20;;
19396;SDS011;9834;48.076;11.878;2023-08-06T02:57:45;3.07;;;2.70;;
19396;SDS011;9834;48.076;11.878;2023-08-06T03:00:12;4.37;;;2.60;;
19396;SDS011;9834;48.076;11.878;2023-08-06T03:02:42;6.33;;;2.80;;
19396;SDS011;9834;48.076;11.878;2023-08-06T03:05:11;2.93;;;2.60;;
19396;SDS011;9834;48.076;11.878;2023-08-06T03:07:38;6.53;;;3.40;;
19396;SDS011;9834;48.076;11.878;2023-08-06T03:10:22;6.13;;;2.57;;
19396;SDS011;9834;48.076;11.878;2023-08-06T03:12:53;2.50;;;2.30;;
19396;SDS011;9834;48.076;11.878;2023-08-06T03:15:24;4.10;;;2.60;;
19396;SDS011;9834;48.076;11.878;2023-08-06T03:17:55;3.10;;;2.80;;
19396;SDS011;9834;48.076;11.878;2023-08-06T03:20:28;2.87;;;2.53;;
19396;SDS011;9834;48.076;11.878;2023-08-06T03:22:58;3.03;;;2.83;;
19396;SDS011;9834;48.076;11.878;2023-08-06T03:25:39;3.07;;;1.93;;
19396;SDS011;9834;48.076;11.878;2023-08-06T03:28:10;3.93;;;2.07;;
19396;SDS011;9834;48.076;11.878;2023-08-06T03:30:46;2.73;;;2.53;;
19396;SDS011;9834;48.076;11.878;2023-08-06T03:33:16;2.23;;;2.10;;
19396;SDS011;9834;48.076;11.878;2023-08-06T03:35:50;2.37;;;1.97;;
19396;SDS011;9834;48.076;11.878;2023-08-06T03:38:17;6.07;;;2.67;;
19396;SDS011;9834;48.076;11.878;2023-08-06T03:40:46;2.17;;;1.97;;
19396;SDS011;9834;48.076;11.878;2023-08-06T03:43:22;6.67;;;2.47;;
19396;SDS011;9834;48.076;11.878;2023-08-06T03:45:51;9.87;;;3.17;;
19396;SDS011;9834;48.076;11.878;2023-08-06T03:48:18;3.47;;;2.30;;
19396;SDS011;9834;48.076;11.878;2023-08-06T03:50:45;1.60;;;1.50;;
19396;SDS011;9834;48.076;11.878;2023-08-06T03:53:14;14.63;;;2.97;;
19396;SDS011;9834;48.076;11.878;2023-08-06T03:55:43;4.03;;;2.73;;
19396;SDS011;9834;48.076;11.878;2023-08-06T03:58:10;2.57;;;2.37;;
19396;SDS011;9834;48.076;11.878;2023-08-06T04:00:40;2.43;;;2.00;;
19396;SDS011;9834;48.076;11.878;2023-08-06T04:03:10;3.37;;;2.53;;
19396;SDS011;9834;48.076;11.878;2023-08-06T04:05:40;2.40;;;1.70;;
19396;SDS011;9834;48.076;11.878;2023-08-06T04:08:09;3.33;;;2.40;;
19396;SDS011;9834;48.076;11.878;2023-08-06T04:10:38;2.13;;;1.93;;
19396;SDS011;9834;48.076;11.878;2023-08-06T04:13:08;3.20;;;2.07;;
19396;SDS011;9834;48.076;11.878;2023-08-06T04:15:35;2.97;;;1.87;;
19396;SDS011;9834;48.076;11.878;2023-08-06T04:18:08;6.33;;;1.80;;
19396;SDS011;9834;48.076;11.878;2023-08-06T04:20:35;2.03;;;1.93;;
19396;SDS011;9834;48.076;11.878;2023-08-06T04:23:12;2.37;;;2.17;;
19396;SDS011;9834;48.076;11.878;2023-08-06T04:25:42;3.07;;;2.33;;
19396;SDS011;9834;48.076;11.878;2023-08-06T04:28:23;2.57;;;1.83;;
19396;SDS011;9834;48.076;11.878;2023-08-06T04:30:52;2.53;;;2.10;;
19396;SDS011;9834;48.076;11.878;2023-08-06T04:33:24;2.47;;;2.27;;
19396;SDS011;9834;48.076;11.878;2023-08-06T04:35:56;9.40;;;3.10;;
19396;SDS011;9834;48.076;11.878;2023-08-06T04:38:23;3.63;;;2.10;;
19396;SDS011;9834;48.076;11.878;2023-08-06T04:40:53;2.80;;;2.03;;
19396;SDS011;9834;48.076;11.878;2023-08-06T04:43:33;2.23;;;2.03;;
19396;SDS011;9834;48.076;11.878;2023-08-06T04:46:00;2.10;;;1.97;;
19396;SDS011;9834;48.076;11.878;2023-08-06T04:48:28;2.33;;;2.13;;
19396;SDS011;9834;48.076;11.878;2023-08-06T04:51:03;2.67;;;2.03;;
19396;SDS011;9834;48.076;11.878;2023-08-06T04:53:30;1.67;;;1.57;;
19396;SDS011;9834;48.076;11.878;2023-08-06T04:55:59;2.00;;;1.80;;
19396;SDS011;9834;48.076;11.878;2023-08-06T04:58:26;2.67;;;1.80;;
19396;SDS011;9834;48.076;11.878;2023-08-06T05:00:58;1.80;;;1.60;;
19396;SDS011;9834;48.076;11.878;2023-08-06T05:03:37;2.00;;;1.80;;
19396;SDS011;9834;48.076;11.878;2023-08-06T05:06:11;2.40;;;2.07;;
19396;SDS011;9834;48.076;11.878;2023-08-06T05:08:41;1.57;;;1.40;;
19396;SDS011;9834;48.076;11.878;2023-08-06T05:11:08;2.07;;;1.90;;
19396;SDS011;9834;48.076;11.878;2023-08-06T05:13:46;2.03;;;1.83;;
19396;SDS011;9834;48.076;11.878;2023-08-06T05:16:13;2.23;;;1.77;;
19396;SDS011;9834;48.076;11.878;2023-08-06T05:18:57;1.90;;;1.80;;
19396;SDS011;9834;48.076;11.878;2023-08-06T05:21:29;3.03;;;2.00;;
19396;SDS011;9834;48.076;11.878;2023-08-06T05:24:04;1.63;;;1.43;;
19396;SDS011;9834;48.076;11.878;2023-08-06T05:26:34;1.67;;;1.57;;
19396;SDS011;9834;48.076;11.878;2023-08-06T05:29:01;1.53;;;1.43;;
19396;SDS011;9834;48.076;11.878;2023-08-06T05:31:33;1.40;;;1.30;;
19396;SDS011;9834;48.076;11.878;2023-08-06T05:34:06;3.13;;;1.43;;
19396;SDS011;9834;48.076;11.878;2023-08-06T05:36:35;2.50;;;1.33;;
19396;SDS011;9834;48.076;11.878;2023-08-06T05:39:08;0.93;;;0.93;;
19396;SDS011;9834;48.076;11.878;2023-08-06T05:41:39;1.97;;;1.20;;
19396;SDS011;9834;48.076;11.878;2023-08-06T05:44:06;1.00;;;1.00;;
19396;SDS011;9834;48.076;11.878;2023-08-06T05:46:49;1.60;;;1.43;;
19396;SDS011;9834;48.076;11.878;2023-08-06T05:49:23;1.10;;;1.00;;
19396;SDS011;9834;48.076;11.878;2023-08-06T05:51:52;0.70;;;0.70;;
19396;SDS011;9834;48.076;11.878;2023-08-06T05:54:19;1.33;;;1.23;;
19396;SDS011;9834;48.076;11.878;2023-08-06T05:56:46;1.73;;;0.83;;
19396;SDS011;9834;48.076;11.878;2023-08-06T05:59:13;0.67;;;0.67;;
19396;SDS011;9834;48.076;11.878;2023-08-06T06:01:45;1.73;;;1.43;;
19396;SDS011;9834;48.076;11.878;2023-08-06T06:04:12;1.27;;;1.17;;
19396;SDS011;9834;48.076;11.878;2023-08-06T06:06:40;1.30;;;1.20;;
19396;SDS011;9834;48.076;11.878;2023-08-06T06:09:07;3.03;;;1.27;;
19396;SDS011;9834;48.076;11.878;2023-08-06T06:11:40;1.17;;;1.10;;
19396;SDS011;9834;48.076;11.878;2023-08-06T06:14:07;1.33;;;1.13;;
19396;SDS011;9834;48.076;11.878;2023-08-06T06:16:34;1.90;;;1.10;;
19396;SDS011;9834;48.076;11.878;2023-08-06T06:19:01;1.23;;;1.10;;
19396;SDS011;9834;48.076;11.878;2023-08-06T06:21:33;1.10;;;1.00;;
19396;SDS011;9834;48.076;11.878;2023-08-06T06:24:01;2.03;;;1.50;;
19396;SDS011;9834;48.076;11.878;2023-08-06T06:26:31;1.77;;;1.00;;
19396;SDS011;9834;48.076;11.878;2023-08-06T06:29:07;2.20;;;1.37;;
19396;SDS011;9834;48.076;11.878;2023-08-06T06:31:36;3.33;;;1.40;;
19396;SDS011;9834;48.076;11.878;2023-08-06T06:34:03;2.30;;;1.33;;
19396;SDS011;9834;48.076;11.878;2023-08-06T06:36:30;1.07;;;0.70;;
19396;SDS011;9834;48.076;11.878;2023-08-06T06:38:59;2.40;;;0.90;;
19396;SDS011;9834;48.076;11.878;2023-08-06T06:41:33;1.73;;;1.00;;
19396;SDS011;9834;48.076;11.878;2023-08-06T06:44:02;1.27;;;0.90;;
19396;SDS011;9834;48.076;11.878;2023-08-06T06:46:45;1.17;;;1.07;;
19396;SDS011;9834;48.076;11.878;2023-08-06T06:49:15;0.70;;;0.70;;
19396;SDS011;9834;48.076;11.878;2023-08-06T06:51:42;0.97;;;0.90;;
19396;SDS011;9834;48.076;11.878;2023-08-06T06:54:20;0.80;;;0.70;;
19396;SDS011;9834;48.076;11.878;2023-08-06T06:56:50;2.40;;;0.77;;
19396;SDS011;9834;48.076;11.878;2023-08-06T06:59:17;0.90;;;0.83;;
19396;SDS011;9834;48.076;11.878;2023-08-06T07:01:44;0.63;;;0.63;;
19396;SDS011;9834;48.076;11.878;2023-08-06T07:04:17;0.83;;;0.83;;
19396;SDS011;9834;48.076;11.878;2023-08-06T07:06:51;2.87;;;0.70;;
19396;SDS011;9834;48.076;11.878;2023-08-06T07:09:18;0.97;;;0.87;;
19396;SDS011;9834;48.076;11.878;2023-08-06T07:11:58;1.27;;;1.03;;
19396;SDS011;9834;48.076;11.878;2023-08-06T07:14:26;3.67;;;1.20;;
19396;SDS011;9834;48.076;11.878;2023-08-06T07:16:54;1.10;;;1.00;;
19396;SDS011;9834;48.076;11.878;2023-08-06T07:19:30;1.40;;;0.97;;
19396;SDS011;9834;48.076;11.878;2023-08-06T07:22:03;0.53;;;0.53;;
19396;SDS011;9834;48.076;11.878;2023-08-06T07:24:31;0.63;;;0.57;;
19396;SDS011;9834;48.076;11.878;2023-08-06T07:27:04;1.33;;;0.80;;
19396;SDS011;9834;48.076;11.878;2023-08-06T07:29:35;0.73;;;0.73;;
19396;SDS011;9834;48.076;11.878;2023-08-06T07:32:13;0.93;;;0.63;;
19396;SDS011;9834;48.076;11.878;2023-08-06T07:34:43;0.47;;;0.47;;
19396;SDS011;9834;48.076;11.878;2023-08-06T07:37:17;2.10;;;1.17;;
19396;SDS011;9834;48.076;11.878;2023-08-06T07:39:46;0.60;;;0.60;;
19396;SDS011;9834;48.076;11.878;2023-08-06T07:42:12;0.73;;;0.70;;
19396;SDS011;9834;48.076;11.878;2023-08-06T07:44:39;0.53;;;0.53;;
19396;SDS011;9834;48.076;11.878;2023-08-06T07:47:12;3.90;;;0.80;;
19396;SDS011;9834;48.076;11.878;2023-08-06T07:49:39;0.77;;;0.60;;
19396;SDS011;9834;48.076;11.878;2023-08-06T07:52:06;0.40;;;0.40;;
19396;SDS011;9834;48.076;11.878;2023-08-06T07:54:33;1.73;;;0.73;;
19396;SDS011;9834;48.076;11.878;2023-08-06T07:57:01;0.50;;;0.50;;
19396;SDS011;9834;48.076;11.878;2023-08-06T07:59:30;0.50;;;0.50;;
19396;SDS011;9834;48.076;11.878;2023-08-06T08:02:06;1.57;;;0.77;;
19396;SDS011;9834;48.076;11.878;2023-08-06T08:04:33;1.10;;;0.67;;
19396;SDS011;9834;48.076;11.878;2023-08-06T08:07:11;3.60;;;0.70;;
19396;SDS011;9834;48.076;11.878;2023-08-06T08:09:49;0.60;;;0.50;;
19396;SDS011;9834;48.076;11.878;2023-08-06T08:12:26;0.50;;;0.50;;
19396;SDS011;9834;48.076;11.878;2023-08-06T08:14:56;0.63;;;0.63;;
19396;SDS011;9834;48.076;11.878;2023-08-06T08:17:23;0.57;;;0.57;;
19396;SDS011;9834;48.076;11.878;2023-08-06T08:19:49;0.60;;;0.53;;
19396;SDS011;9834;48.076;11.878;2023-08-06T08:22:16;3.30;;;0.53;;
19396;SDS011;9834;48.076;11.878;2023-08-06T08:25:09;2.30;;;0.70;;
19396;SDS011;9834;48.076;11.878;2023-08-06T08:27:37;0.43;;;0.40;;
19396;SDS011;9834;48.076;11.878;2023-08-06T08:30:04;3.77;;;0.70;;
19396;SDS011;9834;48.076;11.878;2023-08-06T08:32:37;0.40;;;0.40;;
19396;SDS011;9834;48.076;11.878;2023-08-06T08:35:04;4.27;;;0.70;;
19396;SDS011;9834;48.076;11.878;2023-08-06T08:37:35;0.70;;;0.70;;
19396;SDS011;9834;48.076;11.878;2023-08-06T08:40:02;0.70;;;0.70;;
19396;SDS011;9834;48.076;11.878;2023-08-06T08:42:30;1.10;;;0.60;;
19396;SDS011;9834;48.076;11.878;2023-08-06T08:48:08;0.30;;;0.30;;
19396;SDS011;9834;48.076;11.878;2023-08-06T08:50:46;1.47;;;0.43;;
19396;SDS011;9834;48.076;11.878;2023-08-06T08:53:15;0.50;;;0.50;;
19396;SDS011;9834;48.076;11.878;2023-08-06T08:55:43;0.73;;;0.73;;
19396;SDS011;9834;48.076;11.878;2023-08-06T08:58:10;0.50;;;0.50;;
19396;SDS011;9834;48.076;11.878;2023-08-06T09:00:49;1.00;;;0.57;;
19396;SDS011;9834;48.076;11.878;2023-08-06T09:03:16;0.30;;;0.30;;
19396;SDS011;9834;48.076;11.878;2023-08-06T09:05:56;0.37;;;0.37;;
19396;SDS011;9834;48.076;11.878;2023-08-06T09:08:27;0.20;;;0.20;;
19396;SDS011;9834;48.076;11.878;2023-08-06T09:10:57;0.40;;;0.40;;
19396;SDS011;9834;48.076;11.878;2023-08-06T09:13:27;0.37;;;0.37;;
19396;SDS011;9834;48.076;11.878;2023-08-06T09:16:09;0.20;;;0.20;;
19396;SDS011;9834;48.076;11.878;2023-08-06T09:18:45;0.20;;;0.20;;
19396;SDS011;9834;48.076;11.878;2023-08-06T09:21:23;0.27;;;0.27;;
19396;SDS011;9834;48.076;11.878;2023-08-06T09:23:50;0.40;;;0.40;;
19396;SDS011;9834;48.076;11.878;2023-08-06T09:26:32;0.20;;;0.20;;
19396;SDS011;9834;48.076;11.878;2023-08-06T09:29:00;0.20;;;0.20;;
19396;SDS011;9834;48.076;11.878;2023-08-06T09:31:33;0.30;;;0.30;;
19396;SDS011;9834;48.076;11.878;2023-08-06T09:34:11;0.10;;;0.10;;
19396;SDS011;9834;48.076;11.878;2023-08-06T09:36:52;0.17;;;0.17;;
19396;SDS011;9834;48.076;11.878;2023-08-06T09:39:39;1.07;;;0.20;;
19396;SDS011;9834;48.076;11.878;2023-08-06T09:42:17;2.80;;;0.20;;
19396;SDS011;9834;48.076;11.878;2023-08-06T09:45:05;0.10;;;0.10;;
19396;SDS011;9834;48.076;11.878;2023-08-06T09:47:37;1.30;;;0.30;;
19396;SDS011;9834;48.076;11.878;2023-08-06T09:50:07;1.30;;;0.30;;
19396;SDS011;9834;48.076;11.878;2023-08-06T09:52:43;0.20;;;0.20;;
19396;SDS011;9834;48.076;11.878;2023-08-06T09:55:13;0.10;;;0.10;;
19396;SDS011;9834;48.076;11.878;2023-08-06T09:57:44;0.20;;;0.20;;
19396;SDS011;9834;48.076;11.878;2023-08-06T10:00:18;0.33;;;0.33;;
19396;SDS011;9834;48.076;11.878;2023-08-06T10:02:52;0.30;;;0.30;;
19396;SDS011;9834;48.076;11.878;2023-08-06T10:05:21;0.40;;;0.40;;
19396;SDS011;9834;48.076;11.878;2023-08-06T10:07:48;0.23;;;0.23;;
19396;SDS011;9834;48.076;11.878;2023-08-06T10:10:17;0.17;;;0.17;;
19396;SDS011;9834;48.076;11.878;2023-08-06T10:12:50;0.27;;;0.27;;
19396;SDS011;9834;48.076;11.878;2023-08-06T10:15:20;0.33;;;0.30;;
19396;SDS011;9834;48.076;11.878;2023-08-06T10:17:55;1.03;;;0.37;;
19396;SDS011;9834;48.076;11.878;2023-08-06T10:20:23;0.10;;;0.10;;
19396;SDS011;9834;48.076;11.878;2023-08-06T10:23:03;0.20;;;0.20;;
19396;SDS011;9834;48.076;11.878;2023-08-06T10:25:42;0.20;;;0.20;;
19396;SDS011;9834;48.076;11.878;2023-08-06T10:28:09;0.03;;;0.03;;
19396;SDS011;9834;48.076;11.878;2023-08-06T10:30:41;0.20;;;0.20;;
19396;SDS011;9834;48.076;11.878;2023-08-06T10:33:20;0.50;;;0.30;;
19396;SDS011;9834;48.076;11.878;2023-08-06T10:36:01;5.00;;;0.20;;
19396;SDS011;9834;48.076;11.878;2023-08-06T10:38:34;0.17;;;0.17;;
19396;SDS011;9834;48.076;11.878;2023-08-06T10:41:05;0.33;;;0.30;;
19396;SDS011;9834;48.076;11.878;2023-08-06T10:43:41;0.20;;;0.20;;
19396;SDS011;9834;48.076;11.878;2023-08-06T10:46:10;0.10;;;0.10;;
19396;SDS011;9834;48.076;11.878;2023-08-06T10:48:48;0.77;;;0.20;;
19396;SDS011;9834;48.076;11.878;2023-08-06T10:51:15;1.30;;;0.20;;
19396;SDS011;9834;48.076;11.878;2023-08-06T10:53:46;0.00;;;0.00;;
19396;SDS011;9834;48.076;11.878;2023-08-06T10:56:14;0.00;;;0.00;;
19396;SDS011;9834;48.076;11.878;2023-08-06T10:58:49;0.00;;;0.00;;
19396;SDS011;9834;48.076;11.878;2023-08-06T11:01:17;5.37;;;0.43;;
19396;SDS011;9834;48.076;11.878;2023-08-06T11:03:49;0.10;;;0.10;;
19396;SDS011;9834;48.076;11.878;2023-08-06T11:06:25;0.33;;;0.20;;
19396;SDS011;9834;48.076;11.878;2023-08-06T11:09:13;0.77;;;0.47;;
19396;SDS011;9834;48.076;11.878;2023-08-06T11:11:40;0.10;;;0.10;;
19396;SDS011;9834;48.076;11.878;2023-08-06T11:14:16;0.10;;;0.10;;
19396;SDS011;9834;48.076;11.878;2023-08-06T11:16:46;0.20;;;0.20;;
19396;SDS011;9834;48.076;11.878;2023-08-06T11:19:14;0.10;;;0.10;;
19396;SDS011;9834;48.076;11.878;2023-08-06T11:21:43;0.20;;;0.20;;
19396;SDS011;9834;48.076;11.878;2023-08-06T11:24:12;0.20;;;0.20;;
19396;SDS011;9834;48.076;11.878;2023-08-06T11:26:41;0.20;;;0.20;;
19396;SDS011;9834;48.076;11.878;2023-08-06T11:29:09;0.20;;;0.20;;
19396;SDS011;9834;48.076;11.878;2023-08-06T11:31:41;0.10;;;0.10;;
19396;SDS011;9834;48.076;11.878;2023-08-06T11:34:08;0.10;;;0.10;;
19396;SDS011;9834;48.076;11.878;2023-08-06T11:36:40;0.10;;;0.10;;
19396;SDS011;9834;48.076;11.878;2023-08-06T11:39:12;0.17;;;0.17;;
19396;SDS011;9834;48.076;11.878;2023-08-06T11:41:42;0.20;;;0.20;;
19396;SDS011;9834;48.076;11.878;2023-08-06T11:44:16;0.57;;;0.10;;
19396;SDS011;9834;48.076;11.878;2023-08-06T11:46:53;0.10;;;0.10;;
19396;SDS011;9834;48.076;11.878;2023-08-06T11:52:09;0.00;;;0.00;;
19396;SDS011;9834;48.076;11.878;2023-08-06T11:54:37;0.00;;;0.00;;
19396;SDS011;9834;48.076;11.878;2023-08-06T11:57:05;0.10;;;0.10;;
19396;SDS011;9834;48.076;11.878;2023-08-06T11:59:32;0.10;;;0.10;;
19396;SDS011;9834;48.076;11.878;2023-08-06T12:02:00;0.53;;;0.23;;
19396;SDS011;9834;48.076;11.878;2023-08-06T12:04:28;0.10;;;0.10;;
19396;SDS011;9834;48.076;11.878;2023-08-06T12:07:04;0.10;;;0.10;;
19396;SDS011;9834;48.076;11.878;2023-08-06T12:09:34;0.00;;;0.00;;
19396;SDS011;9834;48.076;11.878;2023-08-06T12:12:03;0.20;;;0.20;;
19396;SDS011;9834;48.076;11.878;2023-08-06T12:14:36;0.10;;;0.10;;
19396;SDS011;9834;48.076;11.878;2023-08-06T12:17:07;0.10;;;0.10;;
19396;SDS011;9834;48.076;11.878;2023-08-06T12:19:40;0.10;;;0.10;;
19396;SDS011;9834;48.076;11.878;2023-08-06T12:22:10;0.10;;;0.10;;
19396;SDS011;9834;48.076;11.878;2023-08-06T12:24:40;0.33;;;0.27;;
19396;SDS011;9834;48.076;11.878;2023-08-06T12:27:10;0.17;;;0.17;;
19396;SDS011;9834;48.076;11.878;2023-08-06T12:29:39;0.30;;;0.20;;
19396;SDS011;9834;48.076;11.878;2023-08-06T12:32:16;0.10;;;0.10;;
19396;SDS011;9834;48.076;11.878;2023-08-06T12:34:44;0.10;;;0.10;;
19396;SDS011;9834;48.076;11.878;2023-08-06T12:37:24;0.10;;;0.10;;
19396;SDS011;9834;48.076;11.878;2023-08-06T12:39:57;0.00;;;0.00;;
19396;SDS011;9834;48.076;11.878;2023-08-06T12:42:24;0.10;;;0.10;;
19396;SDS011;9834;48.076;11.878;2023-08-06T12:44:51;0.07;;;0.07;;
19396;SDS011;9834;48.076;11.878;2023-08-06T12:47:18;0.20;;;0.20;;
19396;SDS011;9834;48.076;11.878;2023-08-06T12:49:50;0.10;;;0.10;;
19396;SDS011;9834;48.076;11.878;2023-08-06T12:52:17;0.10;;;0.10;;
19396;SDS011;9834;48.076;11.878;2023-08-06T12:54:47;0.10;;;0.10;;
19396;SDS011;9834;48.076;11.878;2023-08-06T12:57:21;0.00;;;0.00;;
19396;SDS011;9834;48.076;11.878;2023-08-06T12:59:49;0.10;;;0.10;;
19396;SDS011;9834;48.076;11.878;2023-08-06T13:02:16;0.10;;;0.10;;
19396;SDS011;9834;48.076;11.878;2023-08-06T13:04:47;0.10;;;0.10;;
19396;SDS011;9834;48.076;11.878;2023-08-06T13:07:14;0.13;;;0.13;;
19396;SDS011;9834;48.076;11.878;2023-08-06T13:09:44;0.20;;;0.10;;
19396;SDS011;9834;48.076;11.878;2023-08-06T13:12:13;0.10;;;0.10;;
19396;SDS011;9834;48.076;11.878;2023-08-06T13:14:42;0.10;;;0.10;;
19396;SDS011;9834;48.076;11.878;2023-08-06T13:17:09;0.20;;;0.20;;
19396;SDS011;9834;48.076;11.878;2023-08-06T13:19:38;0.00;;;0.00;;
19396;SDS011;9834;48.076;11.878;2023-08-06T13:22:07;0.10;;;0.10;;
19396;SDS011;9834;48.076;11.878;2023-08-06T13:24:37;0.10;;;0.10;;
19396;SDS011;9834;48.076;11.878;2023-08-06T13:27:16;0.37;;;0.30;;
19396;SDS011;9834;48.076;11.878;2023-08-06T13:29:47;0.00;;;0.00;;
19396;SDS011;9834;48.076;11.878;2023-08-06T13:32:17;0.00;;;0.00;;
19396;SDS011;9834;48.076;11.878;2023-08-06T13:34:43;0.20;;;0.20;;
19396;SDS011;9834;48.076;11.878;2023-08-06T13:37:12;0.47;;;0.20;;
19396;SDS011;9834;48.076;11.878;2023-08-06T13:39:47;3.90;;;0.27;;
19396;SDS011;9834;48.076;11.878;2023-08-06T13:42:13;0.00;;;0.00;;
19396;SDS011;9834;48.076;11.878;2023-08-06T13:44:58;0.00;;;0.00;;
19396;SDS011;9834;48.076;11.878;2023-08-06T13:47:28;0.10;;;0.10;;
19396;SDS011;9834;48.076;11.878;2023-08-06T13:50:00;0.20;;;0.20;;
19396;SDS011;9834;48.076;11.878;2023-08-06T13:52:29;0.10;;;0.10;;
19396;SDS011;9834;48.076;11.878;2023-08-06T13:55:01;0.10;;;0.10;;
19396;SDS011;9834;48.076;11.878;2023-08-06T13:57:34;0.13;;;0.13;;
19396;SDS011;9834;48.076;11.878;2023-08-06T14:00:13;0.13;;;0.13;;
19396;SDS011;9834;48.076;11.878;2023-08-06T14:02:40;1.80;;;0.30;;
19396;SDS011;9834;48.076;11.878;2023-08-06T14:05:12;0.10;;;0.10;;
19396;SDS011;9834;48.076;11.878;2023-08-06T14:07:42;0.10;;;0.10;;
19396;SDS011;9834;48.076;11.878;2023-08-06T14:10:09;0.20;;;0.20;;
19396;SDS011;9834;48.076;11.878;2023-08-06T14:12:44;0.10;;;0.10;;
19396;SDS011;9834;48.076;11.878;2023-08-06T14:15:12;0.00;;;0.00;;
19396;SDS011;9834;48.076;11.878;2023-08-06T14:17:42;0.07;;;0.07;;
19396;SDS011;9834;48.076;11.878;2023-08-06T14:20:17;0.30;;;0.20;;
19396;SDS011;9834;48.076;11.878;2023-08-06T14:22:46;0.07;;;0.07;;
19396;SDS011;9834;48.076;11.878;2023-08-06T14:25:16;0.10;;;0.10;;
19396;SDS011;9834;48.076;11.878;2023-08-06T14:27:43;0.00;;;0.00;;
19396;SDS011;9834;48.076;11.878;2023-08-06T14:33:42;0.10;;;0.10;;
19396;SDS011;9834;48.076;11.878;2023-08-06T14:36:09;0.10;;;0.10;;
19396;SDS011;9834;48.076;11.878;2023-08-06T14:38:39;0.27;;;0.23;;
19396;SDS011;9834;48.076;11.878;2023-08-06T14:41:05;0.20;;;0.20;;
19396;SDS011;9834;48.076;11.878;2023-08-06T14:43:35;0.10;;;0.10;;
19396;SDS011;9834;48.076;11.878;2023-08-06T14:46:01;0.20;;;0.20;;
19396;SDS011;9834;48.076;11.878;2023-08-06T14:48:42;1.83;;;0.20;;
19396;SDS011;9834;48.076;11.878;2023-08-06T14:51:15;0.20;;;0.20;;
19396;SDS011;9834;48.076;11.878;2023-08-06T14:53:44;0.20;;;0.20;;
19396;SDS011;9834;48.076;11.878;2023-08-06T14:56:16;0.10;;;0.10;;
19396;SDS011;9834;48.076;11.878;2023-08-06T14:58:46;0.10;;;0.10;;
19396;SDS011;9834;48.076;11.878;2023-08-06T15:01:13;0.10;;;0.10;;
19396;SDS011;9834;48.076;11.878;2023-08-06T15:03:47;0.10;;;0.10;;
19396;SDS011;9834;48.076;11.878;2023-08-06T15:06:19;0.03;;;0.03;;
19396;SDS011;9834;48.076;11.878;2023-08-06T15:08:46;0.20;;;0.20;;
19396;SDS011;9834;48.076;11.878;2023-08-06T15:11:23;0.27;;;0.27;;
19396;SDS011;9834;48.076;11.878;2023-08-06T15:13:51;0.10;;;0.10;;
19396;SDS011;9834;48.076;11.878;2023-08-06T15:16:25;0.37;;;0.30;;
19396;SDS011;9834;48.076;11.878;2023-08-06T15:18:54;0.10;;;0.10;;
19396;SDS011;9834;48.076;11.878;2023-08-06T15:21:23;0.77;;;0.20;;
19396;SDS011;9834;48.076;11.878;2023-08-06T15:23:50;0.20;;;0.20;;
19396;SDS011;9834;48.076;11.878;2023-08-06T15:26:17;0.10;;;0.10;;
19396;SDS011;9834;48.076;11.878;2023-08-06T15:28:45;0.10;;;0.10;;